KACV/ACV METAR and TAF weather

Enter ICAO airport designator
Station Type Date Time Source
KACV METAR 2021/04/14 18:53 UTC NOAA

KACV 141853Z AUTO 32013KT 10SM CLR 14/03 A2998 RMK AO2 SLP159 T01390033


Station Type Date Time Source
KACV Decoded METAR 2021/04/14 18:53 UTC NOAA

ARCATA/EUREKA ARCATA AIRPORT, CA, United States (KACV) 40-59N 124-06W 67M
Apr 14, 2021 - 02:53 PM EDT / 2021.04.14 1853 UTC
Wind: from the NW (320 degrees) at 15 MPH (13 KT):0
Visibility: 10 mile(s):0
Sky conditions: clear
Temperature: 57.0 F (13.9 C)
Dew Point: 37.9 F (3.3 C)
Relative Humidity: 48%
Pressure (altimeter): 29.98 in. Hg (1015 hPa)
ob: KACV 141853Z AUTO 32013KT 10SM CLR 14/03 A2998 RMK AO2 SLP159 T01390033
cycle: 19

Station Type Date Time Source
KACV TAF 2021/04/14 18:22 UTC NOAA

TAF KACV 141720Z 1418/1518 30009KT P6SM SKC
FM150300 VRB04KT P6SM SKC

Example: see airport list